Time;durP1;ratioP1;P1;durP2;ratioP2;P2;SDS_P1;SDS_P2;PMS_P1;PMS_P2;Temp;Humidity;BMP_temperature;BMP_pressure;BME280_temperature;BME280_humidity;BME280_pressure;Samples;Min_cycle;Max_cycle;Signal;HPM_P1;HPM_P2
2023/03/19 00:02:07;;;;;;;5.72;3.60;;;12.30;99.90;;;;;;10422395;28;20043;-64
2023/03/19 00:07:08;;;;;;;5.05;3.22;;;12.30;99.90;;;;;;10427144;28;20250;-64
2023/03/19 00:12:10;;;;;;;8.52;4.85;;;12.30;99.90;;;;;;10423013;28;20477;-63
2023/03/19 00:17:11;;;;;;;4.55;3.00;;;12.30;99.90;;;;;;10424919;28;20024;-64
2023/03/19 00:22:12;;;;;;;5.82;3.65;;;12.30;99.90;;;;;;10423492;28;20036;-63
2023/03/19 00:27:13;;;;;;;4.55;3.03;;;12.30;99.90;;;;;;10422673;28;20480;-64
2023/03/19 00:32:14;;;;;;;6.70;3.35;;;12.30;99.90;;;;;;10434637;28;20021;-63
2023/03/19 00:37:16;;;;;;;5.15;3.13;;;12.30;99.90;;;;;;10433082;28;20520;-63
2023/03/19 00:42:16;;;;;;;5.63;3.15;;;12.30;99.90;;;;;;10430550;28;20025;-63
2023/03/19 00:47:17;;;;;;;6.07;3.33;;;12.30;99.90;;;;;;10436384;28;20028;-64
2023/03/19 00:52:18;;;;;;;3.47;2.90;;;12.30;99.90;;;;;;10432481;28;20036;-64
2023/03/19 00:57:18;;;;;;;4.78;3.22;;;12.20;99.90;;;;;;10426368;28;20075;-64
2023/03/19 01:02:19;;;;;;;5.18;3.08;;;12.20;99.90;;;;;;10433100;28;20106;-64
2023/03/19 01:07:20;;;;;;;6.00;2.65;;;12.20;99.90;;;;;;10429547;28;20083;-62
2023/03/19 01:12:20;;;;;;;3.45;3.03;;;12.20;99.90;;;;;;10429903;28;20021;-63
2023/03/19 01:17:21;;;;;;;4.70;2.72;;;12.20;99.90;;;;;;10424231;28;20225;-63
2023/03/19 01:22:22;;;;;;;4.55;3.08;;;12.20;99.90;;;;;;10434867;28;20502;-63
2023/03/19 01:27:22;;;;;;;4.50;2.78;;;12.20;99.90;;;;;;10427639;28;20021;-63
2023/03/19 01:32:23;;;;;;;4.57;2.78;;;12.30;99.90;;;;;;10436491;28;20470;-63
2023/03/19 01:37:23;;;;;;;3.90;2.70;;;12.20;99.90;;;;;;10433582;28;20033;-64
2023/03/19 01:42:24;;;;;;;4.32;2.78;;;12.20;99.90;;;;;;10424009;28;20030;-63
2023/03/19 01:47:37;;;;;;;3.53;2.38;;;12.20;99.90;;;;;;10436861;28;20025;-63
2023/03/19 01:52:38;;;;;;;3.47;2.28;;;12.20;99.90;;;;;;10432736;28;20044;-63
2023/03/19 01:57:39;;;;;;;4.00;2.30;;;12.10;99.90;;;;;;10430681;28;20028;-64
2023/03/19 02:02:42;;;;;;;3.63;2.72;;;12.10;99.90;;;;;;10426948;28;20507;-63
2023/03/19 02:07:44;;;;;;;3.13;1.88;;;12.20;99.90;;;;;;10436597;28;20028;-64
2023/03/19 02:12:45;;;;;;;2.70;2.13;;;12.10;99.90;;;;;;10433695;28;20025;-63
2023/03/19 02:17:47;;;;;;;3.25;2.30;;;12.20;99.90;;;;;;10435236;28;20505;-64
2023/03/19 02:23:08;;;;;;;2.10;1.90;;;12.10;99.90;;;;;;10434499;28;20068;-63
2023/03/19 02:28:09;;;;;;;2.80;2.00;;;12.10;99.90;;;;;;10427321;28;20026;-64
2023/03/19 02:33:16;;;;;;;2.13;1.88;;;12.10;99.90;;;;;;10429971;28;20086;-63
2023/03/19 02:38:21;;;;;;;2.67;1.75;;;12.10;99.90;;;;;;10430442;28;20025;-63
2023/03/19 02:43:22;;;;;;;3.05;1.70;;;12.10;99.90;;;;;;10434319;28;20131;-63
2023/03/19 02:48:23;;;;;;;2.85;1.90;;;12.10;99.90;;;;;;10431031;28;20104;-64
2023/03/19 02:53:28;;;;;;;2.15;1.60;;;12.10;99.90;;;;;;10428446;28;20368;-64
2023/03/19 02:58:29;;;;;;;3.40;1.73;;;12.00;99.90;;;;;;10430180;28;20079;-63
2023/03/19 03:03:30;;;;;;;2.30;1.50;;;12.00;99.90;;;;;;10429030;28;20465;-63
2023/03/19 03:08:30;;;;;;;2.67;1.60;;;12.00;99.90;;;;;;10423735;28;20017;-64
2023/03/19 03:13:31;;;;;;;1.48;1.10;;;12.00;99.90;;;;;;10432524;28;20513;-63
2023/03/19 03:18:32;;;;;;;2.58;1.67;;;12.00;99.90;;;;;;10430187;28;20033;-63
2023/03/19 03:23:32;;;;;;;1.88;1.60;;;12.00;99.90;;;;;;10430014;28;20072;-64
2023/03/19 03:28:33;;;;;;;1.73;1.23;;;12.00;99.90;;;;;;10426456;28;20021;-64
2023/03/19 03:33:35;;;;;;;1.75;1.45;;;12.00;99.90;;;;;;10424663;28;20026;-64
2023/03/19 03:38:35;;;;;;;1.52;1.40;;;12.60;99.90;;;;;;10422380;28;20104;-63
2023/03/19 03:43:36;;;;;;;2.20;1.60;;;12.00;99.90;;;;;;10433738;28;20026;-64
2023/03/19 03:48:39;;;;;;;1.77;1.35;;;12.00;99.90;;;;;;10424363;28;20542;-63
2023/03/19 03:53:40;;;;;;;2.85;1.45;;;12.00;99.90;;;;;;10429045;28;20120;-63
2023/03/19 03:58:41;;;;;;;3.75;1.50;;;11.90;99.90;;;;;;10424628;28;20416;-63
2023/03/19 04:03:41;;;;;;;1.95;1.30;;;11.90;99.90;;;;;;10431194;28;20036;-64
2023/03/19 04:08:42;;;;;;;1.48;1.08;;;11.90;99.90;;;;;;10428389;28;20025;-63
2023/03/19 04:13:43;;;;;;;1.50;1.20;;;11.90;99.90;;;;;;10424836;28;20044;-63
2023/03/19 04:18:43;;;;;;;1.90;1.30;;;11.90;99.90;;;;;;10426329;28;20070;-64
2023/03/19 04:23:44;;;;;;;1.77;1.20;;;11.90;99.90;;;;;;10427274;28;20045;-63
2023/03/19 04:28:44;;;;;;;1.70;1.20;;;11.90;99.90;;;;;;10424091;28;20041;-63
2023/03/19 04:33:45;;;;;;;2.50;1.20;;;11.90;99.90;;;;;;10433393;28;20082;-64
2023/03/19 04:38:46;;;;;;;1.35;0.90;;;11.90;99.90;;;;;;10425749;28;20120;-63
2023/03/19 04:43:47;;;;;;;2.25;1.45;;;11.80;99.90;;;;;;10431825;28;20025;-63
2023/03/19 04:48:47;;;;;;;2.17;1.25;;;11.80;99.90;;;;;;10433114;28;20033;-63
2023/03/19 04:53:48;;;;;;;1.50;1.10;;;11.80;99.90;;;;;;10428373;28;20029;-64
2023/03/19 04:58:49;;;;;;;2.90;1.23;;;11.80;99.90;;;;;;10429579;28;20029;-63
2023/03/19 05:03:50;;;;;;;2.00;1.35;;;11.80;99.90;;;;;;10429445;28;20029;-64
2023/03/19 05:08:50;;;;;;;2.58;1.00;;;11.80;99.90;;;;;;10423989;28;20698;-63
2023/03/19 05:13:51;;;;;;;1.50;0.90;;;11.80;99.90;;;;;;10435127;28;20100;-63
2023/03/19 05:18:52;;;;;;;1.33;1.00;;;11.80;99.90;;;;;;10439291;28;20190;-64
2023/03/19 05:23:53;;;;;;;2.00;1.10;;;11.70;99.90;;;;;;10430539;28;20447;-63
2023/03/19 05:28:54;;;;;;;2.58;1.30;;;11.70;99.90;;;;;;10427852;28;20037;-63
2023/03/19 05:33:57;;;;;;;1.60;1.15;;;11.70;99.90;;;;;;10429865;28;20036;-64
2023/03/19 05:38:58;;;;;;;1.65;1.40;;;11.70;99.90;;;;;;10435101;28;20204;-63
2023/03/19 05:43:58;;;;;;;2.78;1.10;;;11.70;99.90;;;;;;10427905;28;20423;-63
2023/03/19 05:48:59;;;;;;;1.35;1.00;;;11.60;99.90;;;;;;10431436;28;20408;-63
2023/03/19 05:54:00;;;;;;;1.55;1.00;;;11.60;99.90;;;;;;10428619;28;20029;-64
2023/03/19 05:59:01;;;;;;;3.08;0.93;;;11.60;99.90;;;;;;10425501;28;20443;-64
2023/03/19 06:04:01;;;;;;;1.20;1.00;;;11.60;99.90;;;;;;10433461;28;20175;-64
2023/03/19 06:09:02;;;;;;;2.13;1.20;;;11.60;99.90;;;;;;10428264;28;20066;-63
2023/03/19 06:14:02;;;;;;;1.50;1.00;;;11.60;99.90;;;;;;10427816;28;20017;-63
2023/03/19 06:19:03;;;;;;;1.85;1.10;;;11.60;99.90;;;;;;10431139;28;20028;-63
2023/03/19 06:24:04;;;;;;;1.13;0.88;;;11.50;99.90;;;;;;10435327;28;20503;-64
2023/03/19 06:29:05;;;;;;;1.33;1.00;;;11.50;99.90;;;;;;10435526;28;20505;-62
2023/03/19 06:34:05;;;;;;;1.13;1.00;;;11.50;99.90;;;;;;10432478;28;20049;-63
2023/03/19 06:39:06;;;;;;;1.75;1.00;;;11.50;99.90;;;;;;10431822;28;20495;-62
2023/03/19 06:44:07;;;;;;;1.40;1.13;;;11.50;99.90;;;;;;10433198;28;20031;-63
2023/03/19 06:49:07;;;;;;;1.77;1.02;;;11.50;99.90;;;;;;10437418;28;20021;-63
2023/03/19 06:54:08;;;;;;;1.25;1.15;;;11.70;99.90;;;;;;10436689;28;20343;-63
2023/03/19 06:59:11;;;;;;;1.65;0.95;;;11.50;99.90;;;;;;10433204;28;20102;-63
2023/03/19 07:04:12;;;;;;;2.05;1.02;;;11.50;99.90;;;;;;10414876;28;20107;-63
2023/03/19 07:09:13;;;;;;;1.30;0.95;;;11.60;99.90;;;;;;10430737;28;20104;-63
2023/03/19 07:14:13;;;;;;;1.73;1.10;;;11.70;99.90;;;;;;10431392;28;20393;-63
2023/03/19 07:19:14;;;;;;;2.20;1.20;;;11.50;99.90;;;;;;10430914;28;20036;-63
2023/03/19 07:24:15;;;;;;;5.57;1.60;;;11.60;99.90;;;;;;10421071;28;20029;-64
2023/03/19 07:29:16;;;;;;;2.00;1.40;;;11.60;99.90;;;;;;10431297;28;20581;-63
2023/03/19 07:34:17;;;;;;;2.65;1.50;;;11.60;99.90;;;;;;10433835;28;20021;-64
2023/03/19 07:39:18;;;;;;;1.98;1.45;;;11.70;99.90;;;;;;10432520;28;20447;-63
2023/03/19 07:44:19;;;;;;;2.17;1.27;;;11.70;99.90;;;;;;10437622;28;20070;-63
2023/03/19 07:49:21;;;;;;;1.60;1.30;;;11.70;99.90;;;;;;10435992;28;20029;-63
2023/03/19 07:54:22;;;;;;;2.65;1.70;;;11.80;99.90;;;;;;10436253;28;20017;-64
2023/03/19 07:59:23;;;;;;;2.25;1.80;;;11.80;99.90;;;;;;10431263;28;20074;-63
2023/03/19 08:04:23;;;;;;;3.03;1.70;;;11.80;99.90;;;;;;10432358;28;20472;-64
2023/03/19 08:09:24;;;;;;;1.30;1.17;;;11.70;99.90;;;;;;10426836;28;20402;-64
2023/03/19 08:14:25;;;;;;;2.38;1.63;;;11.80;99.90;;;;;;10430467;28;20504;-63
2023/03/19 08:19:25;;;;;;;2.88;1.70;;;11.80;99.90;;;;;;10432500;28;20017;-64
2023/03/19 08:24:26;;;;;;;3.05;1.70;;;11.80;99.90;;;;;;10437371;28;20333;-63
2023/03/19 08:29:27;;;;;;;2.58;1.60;;;11.80;99.90;;;;;;10437314;28;20155;-64
2023/03/19 08:34:28;;;;;;;3.47;2.17;;;11.80;99.90;;;;;;10436311;28;20247;-63
2023/03/19 08:39:29;;;;;;;3.30;2.10;;;11.80;99.90;;;;;;10432524;28;20031;-64
2023/03/19 08:44:29;;;;;;;5.47;2.00;;;11.90;99.90;;;;;;10429833;28;20029;-64
2023/03/19 08:49:30;;;;;;;3.47;2.20;;;11.90;99.90;;;;;;10436048;28;20021;-63
2023/03/19 08:54:31;;;;;;;3.85;2.13;;;11.90;99.90;;;;;;10444980;28;20029;-64
2023/03/19 08:59:35;;;;;;;3.95;2.47;;;12.00;99.90;;;;;;10444498;28;20113;-64
2023/03/19 09:04:37;;;;;;;3.95;2.20;;;11.90;99.90;;;;;;10437947;28;20029;-63
2023/03/19 09:09:39;;;;;;;4.57;2.42;;;12.00;99.90;;;;;;10435972;28;20520;-63
2023/03/19 09:14:40;;;;;;;3.80;2.45;;;12.20;99.90;;;;;;10438733;28;20172;-64
2023/03/19 09:19:41;;;;;;;3.28;2.22;;;12.00;99.90;;;;;;10438629;28;20025;-63
2023/03/19 09:24:41;;;;;;;3.83;2.58;;;12.00;99.90;;;;;;10441343;28;20111;-63
2023/03/19 09:29:42;;;;;;;4.90;2.53;;;12.00;99.90;;;;;;10437245;28;20025;-62
2023/03/19 09:34:43;;;;;;;5.75;2.97;;;12.00;99.90;;;;;;10433190;28;20013;-63
2023/03/19 09:39:43;;;;;;;3.67;2.58;;;12.00;99.90;;;;;;10438744;28;20025;-63
2023/03/19 09:44:45;;;;;;;5.00;2.92;;;12.00;99.90;;;;;;10441029;28;20074;-63
2023/03/19 09:49:49;;;;;;;3.90;2.40;;;12.00;99.90;;;;;;10444813;28;20017;-63
2023/03/19 09:54:53;;;;;;;4.10;2.72;;;12.00;99.90;;;;;;10438915;28;20108;-63
2023/03/19 09:59:55;;;;;;;4.53;2.70;;;12.00;99.90;;;;;;10432534;28;20028;-63
2023/03/19 10:05:11;;;;;;;4.22;2.58;;;12.00;99.90;;;;;;10438402;28;20025;-63
2023/03/19 10:10:36;;;;;;;4.47;2.70;;;12.00;99.90;;;;;;10436451;28;20082;-63
2023/03/19 10:15:38;;;;;;;4.75;2.45;;;12.00;99.90;;;;;;10429568;28;20148;-64
2023/03/19 10:21:05;;;;;;;4.13;2.60;;;12.00;99.90;;;;;;10437618;28;20556;-62
2023/03/19 10:26:17;;;;;;;3.70;2.75;;;12.00;99.90;;;;;;10412980;28;20052;-63
2023/03/19 10:31:37;;;;;;;5.43;3.00;;;12.00;99.90;;;;;;10433335;28;20021;-62
2023/03/19 10:36:39;;;;;;;5.13;2.90;;;12.10;99.90;;;;;;10437532;28;20037;-64
2023/03/19 10:41:59;;;;;;;4.70;3.13;;;12.10;99.90;;;;;;10434161;28;20397;-62
2023/03/19 10:47:13;;;;;;;5.10;2.95;;;12.10;99.90;;;;;;10437748;28;20476;-64
2023/03/19 10:52:26;;;;;;;4.00;2.63;;;12.10;99.90;;;;;;10437794;28;20043;-64
2023/03/19 10:57:30;;;;;;;5.13;3.10;;;12.20;99.90;;;;;;10438677;28;20082;-63
2023/03/19 11:02:32;;;;;;;6.60;3.60;;;12.20;99.90;;;;;;10433318;28;20022;-63
2023/03/19 11:07:36;;;;;;;5.13;3.40;;;12.30;99.90;;;;;;10431173;28;20040;-63
2023/03/19 11:12:36;;;;;;;5.82;3.15;;;12.40;99.80;;;;;;10432197;28;20028;-64
2023/03/19 11:18:04;;;;;;;7.63;3.47;;;12.40;99.70;;;;;;10431491;28;20035;-62
2023/03/19 11:23:12;;;;;;;5.47;3.28;;;12.50;99.70;;;;;;10439571;28;20044;-63
2023/03/19 11:28:16;;;;;;;11.07;5.83;;;13.40;99.80;;;;;;10434613;28;20086;-65
2023/03/19 11:33:41;;;;;;;18.73;5.68;;;12.60;99.80;;;;;;10435666;28;20656;-64
2023/03/19 11:38:53;;;;;;;11.82;6.30;;;12.80;99.90;;;;;;10427997;28;20029;-63
2023/03/19 11:44:01;;;;;;;16.80;6.78;;;12.80;99.90;;;;;;10437242;28;20476;-62
2023/03/19 11:49:07;;;;;;;12.33;6.40;;;12.80;99.80;;;;;;10434474;28;20035;-63
2023/03/19 11:54:27;;;;;;;12.77;6.70;;;12.80;99.70;;;;;;10434506;28;20476;-65
2023/03/19 11:59:46;;;;;;;10.50;6.00;;;12.90;99.70;;;;;;10432902;28;20470;-66
2023/03/19 12:05:12;;;;;;;15.60;8.18;;;13.10;99.70;;;;;;10430610;28;20114;-64
2023/03/19 12:10:37;;;;;;;20.63;9.68;;;13.10;99.80;;;;;;10428647;28;20108;-64
2023/03/19 12:16:05;;;;;;;18.10;9.05;;;13.10;99.90;;;;;;10435123;28;20021;-63
2023/03/19 12:21:22;;;;;;;15.37;9.03;;;13.10;99.90;;;;;;10432032;28;20029;-64
2023/03/19 12:26:23;;;;;;;16.15;8.40;;;13.10;99.90;;;;;;10437551;28;20574;-64
2023/03/19 12:31:35;;;;;;;14.70;8.02;;;13.10;99.90;;;;;;10445852;28;20313;-64
2023/03/19 12:36:44;;;;;;;16.63;8.10;;;13.00;99.90;;;;;;10439661;28;20028;-64
2023/03/19 12:41:47;;;;;;;16.15;8.70;;;13.00;99.90;;;;;;10434835;28;20022;-64
2023/03/19 12:47:04;;;;;;;18.73;8.50;;;13.00;99.90;;;;;;10440725;28;20270;-66
2023/03/19 12:52:36;;;;;;;18.63;8.95;;;13.10;99.90;;;;;;10438221;28;20056;-62
2023/03/19 12:57:53;;;;;;;16.05;8.15;;;13.30;99.90;;;;;;10441925;28;20040;-63
2023/03/19 13:03:05;;;;;;;15.88;8.05;;;13.40;99.90;;;;;;10435376;28;20021;-62
2023/03/19 13:08:15;;;;;;;15.02;7.72;;;13.40;99.90;;;;;;10438472;28;20061;-63
2023/03/19 13:13:48;;;;;;;13.55;7.97;;;13.50;99.90;;;;;;10435614;28;20223;-63
2023/03/19 13:19:17;;;;;;;14.05;7.30;;;13.40;99.90;;;;;;10433006;28;20027;-63
2023/03/19 13:24:26;;;;;;;13.80;6.95;;;13.40;99.90;;;;;;10419539;28;20056;-64
2023/03/19 13:29:28;;;;;;;;;;;13.40;99.90;;;;;;10428645;28;20034;-63
2023/03/19 13:34:35;;;;;;;14.68;7.75;;;13.40;99.90;;;;;;10432587;28;19912;-64
2023/03/19 13:39:37;;;;;;;15.10;8.32;;;13.40;99.90;;;;;;10434088;28;20026;-64
2023/03/19 13:44:46;;;;;;;13.13;7.40;;;13.40;99.90;;;;;;10434378;28;20033;-63
2023/03/19 13:50:07;;;;;;;15.55;7.45;;;13.40;99.90;;;;;;10430503;28;20061;-64
2023/03/19 13:55:31;;;;;;;16.67;6.90;;;13.40;99.90;;;;;;10440093;28;20532;-64
2023/03/19 14:00:44;;;;;;;14.80;7.45;;;13.40;99.90;;;;;;10429990;28;20404;-65
2023/03/19 14:05:46;;;;;;;12.77;7.20;;;13.40;99.90;;;;;;10436900;28;20041;-64
2023/03/19 14:10:50;;;;;;;16.40;7.65;;;13.50;99.90;;;;;;10430178;28;20017;-63
2023/03/19 14:15:53;;;;;;;12.85;6.60;;;13.60;99.90;;;;;;10429456;28;20494;-64
2023/03/19 14:21:00;;;;;;;12.35;6.70;;;13.50;99.90;;;;;;10436831;28;20062;-66
2023/03/19 14:26:27;;;;;;;12.45;6.82;;;13.50;99.90;;;;;;10436975;28;20106;-63
2023/03/19 14:31:46;;;;;;;12.90;6.57;;;13.50;99.90;;;;;;10432758;28;20026;-62
2023/03/19 14:37:01;;;;;;;13.18;6.95;;;13.50;99.90;;;;;;10430989;28;20040;-63
2023/03/19 14:42:27;;;;;;;13.68;6.78;;;13.50;99.90;;;;;;10434597;28;20104;-64
2023/03/19 14:48:06;;;;;;;11.15;5.97;;;13.40;99.90;;;;;;10431274;28;20064;-62
2023/03/19 14:53:21;;;;;;;11.57;6.63;;;13.40;99.90;;;;;;10429412;28;20065;-64
2023/03/19 14:58:22;;;;;;;13.75;7.10;;;13.40;99.90;;;;;;10437493;28;20061;-63
2023/03/19 15:03:33;;;;;;;12.35;6.07;;;13.30;99.90;;;;;;10437333;28;20108;-62
2023/03/19 15:08:38;;;;;;;12.30;6.53;;;13.30;99.90;;;;;;10434449;28;20432;-63
2023/03/19 15:13:57;;;;;;;11.75;5.80;;;13.30;99.90;;;;;;10431612;28;20036;-64
2023/03/19 15:18:57;;;;;;;;;;;13.20;99.90;;;;;;10436533;28;20463;-63
2023/03/19 15:23:58;;;;;;;10.85;5.47;;;13.20;99.90;;;;;;10431989;28;19912;-64
2023/03/19 15:28:59;;;;;;;12.25;5.88;;;13.20;99.90;;;;;;10436597;28;20424;-64
2023/03/19 15:34:00;;;;;;;13.18;6.03;;;13.20;99.90;;;;;;10432834;28;20506;-64
2023/03/19 15:39:08;;;;;;;10.60;5.85;;;13.10;99.90;;;;;;10433958;28;20179;-63
2023/03/19 15:44:47;;;;;;;12.05;5.65;;;13.10;99.90;;;;;;10434797;28;20053;-63
2023/03/19 15:50:21;;;;;;;14.95;6.47;;;13.10;99.90;;;;;;10430428;28;20033;-63
2023/03/19 15:55:23;;;;;;;13.98;6.85;;;13.10;99.90;;;;;;10432515;28;20592;-63
2023/03/19 16:00:24;;;;;;;11.18;5.35;;;13.10;99.90;;;;;;10430258;28;20147;-63
2023/03/19 16:05:28;;;;;;;9.95;5.70;;;13.10;99.90;;;;;;10428097;28;20082;-64
2023/03/19 16:10:29;;;;;;;10.15;5.43;;;13.10;99.90;;;;;;10427198;28;20032;-64
2023/03/19 16:15:41;;;;;;;11.98;5.88;;;13.00;99.90;;;;;;10425197;28;20036;-64
2023/03/19 16:20:43;;;;;;;12.30;6.57;;;13.00;99.90;;;;;;10429688;28;20542;-64
2023/03/19 16:25:45;;;;;;;10.32;5.55;;;13.00;99.90;;;;;;10425488;28;20030;-64
2023/03/19 16:30:47;;;;;;;14.85;6.38;;;13.00;99.90;;;;;;10429906;28;20033;-63
2023/03/19 16:35:51;;;;;;;12.95;6.82;;;13.00;99.90;;;;;;10435006;28;20037;-64
2023/03/19 16:41:16;;;;;;;11.93;6.47;;;13.00;99.90;;;;;;10427480;28;20029;-64
2023/03/19 16:46:17;;;;;;;13.07;6.00;;;13.00;99.90;;;;;;10432143;28;20033;-64
2023/03/19 16:51:20;;;;;;;13.13;5.97;;;12.90;99.90;;;;;;10426420;28;20047;-64
2023/03/19 16:56:21;;;;;;;14.60;6.72;;;12.90;99.90;;;;;;10418775;28;20397;-64
2023/03/19 17:01:24;;;;;;;22.38;8.88;;;12.90;99.90;;;;;;10426765;28;20044;-64
2023/03/19 17:06:28;;;;;;;22.95;8.18;;;12.90;99.90;;;;;;10430244;28;20108;-63
2023/03/19 17:11:33;;;;;;;22.55;9.18;;;12.90;99.90;;;;;;10437930;28;20032;-62
2023/03/19 17:16:34;;;;;;;23.52;9.23;;;12.80;99.90;;;;;;10435587;28;20297;-63
2023/03/19 17:21:35;;;;;;;24.52;10.00;;;12.90;99.90;;;;;;10434475;28;20109;-63
2023/03/19 17:26:35;;;;;;;25.05;10.38;;;12.90;99.90;;;;;;10435654;28;20472;-64
2023/03/19 17:31:36;;;;;;;20.40;9.65;;;12.90;99.90;;;;;;10438031;28;20031;-64
2023/03/19 17:36:42;;;;;;;25.27;10.20;;;12.80;99.90;;;;;;10425813;28;20500;-63
2023/03/19 17:41:43;;;;;;;27.08;10.52;;;12.80;99.90;;;;;;10441369;28;20036;-63
2023/03/19 17:46:47;;;;;;;25.75;10.32;;;12.80;99.90;;;;;;10428996;28;20086;-63
2023/03/19 17:51:48;;;;;;;21.38;9.70;;;12.80;99.90;;;;;;10440743;28;20388;-63
2023/03/19 17:56:49;;;;;;;27.80;11.30;;;12.40;99.90;;;;;;10433399;28;20033;-65
2023/03/19 18:01:50;;;;;;;32.70;11.25;;;12.70;99.90;;;;;;10426926;28;20028;-64
2023/03/19 18:06:53;;;;;;;28.02;11.73;;;12.60;99.90;;;;;;10433045;28;20052;-63
2023/03/19 18:11:54;;;;;;;26.58;10.40;;;12.60;99.90;;;;;;10429225;28;20388;-63
2023/03/19 18:16:55;;;;;;;26.65;10.25;;;12.60;99.90;;;;;;10429327;28;20109;-64
2023/03/19 18:21:55;;;;;;;26.02;11.27;;;12.60;99.90;;;;;;10424431;28;20131;-63
2023/03/19 18:26:56;;;;;;;23.83;10.68;;;12.50;99.90;;;;;;10432945;28;20559;-64
2023/03/19 18:32:02;;;;;;;29.50;11.07;;;12.50;99.90;;;;;;10430220;28;20366;-64
2023/03/19 18:37:03;;;;;;;23.95;9.80;;;12.50;99.90;;;;;;10429984;28;20017;-63
2023/03/19 18:42:03;;;;;;;26.10;10.00;;;12.50;99.90;;;;;;10429302;28;20053;-64
2023/03/19 18:47:04;;;;;;;24.52;9.90;;;12.50;99.90;;;;;;10433486;28;20037;-64
2023/03/19 18:52:05;;;;;;;20.50;9.07;;;12.50;99.90;;;;;;10426165;28;20045;-64
2023/03/19 18:57:09;;;;;;;21.65;9.40;;;12.50;99.90;;;;;;10426811;28;20144;-64
2023/03/19 19:02:20;;;;;;;23.40;9.48;;;12.50;99.90;;;;;;10425311;28;20035;-62
2023/03/19 19:07:20;;;;;;;22.85;9.15;;;12.50;99.90;;;;;;10429278;28;20074;-63
2023/03/19 19:12:21;;;;;;;23.08;9.38;;;12.50;99.90;;;;;;10427955;28;20017;-64
2023/03/19 19:17:28;;;;;;;18.23;7.88;;;12.50;99.90;;;;;;10426249;28;20099;-63
2023/03/19 19:22:28;;;;;;;18.73;8.43;;;12.50;99.90;;;;;;10424450;28;20029;-64
2023/03/19 19:27:29;;;;;;;24.65;8.95;;;12.50;99.90;;;;;;10422272;28;20033;-63
2023/03/19 19:32:31;;;;;;;18.50;7.40;;;12.40;99.90;;;;;;10428196;28;20009;-62
2023/03/19 19:37:31;;;;;;;17.20;7.68;;;12.40;99.90;;;;;;10433742;28;20115;-63
2023/03/19 19:42:32;;;;;;;19.60;8.43;;;12.40;99.90;;;;;;10434488;28;20028;-63
2023/03/19 19:47:34;;;;;;;15.57;6.82;;;12.40;99.90;;;;;;10434307;28;20021;-63
2023/03/19 19:52:35;;;;;;;17.33;7.90;;;12.40;99.90;;;;;;10429440;28;20045;-63
2023/03/19 19:57:38;;;;;;;17.92;7.75;;;12.40;99.90;;;;;;10436523;28;20453;-63
2023/03/19 20:02:39;;;;;;;16.27;7.45;;;12.40;99.90;;;;;;10426173;28;20060;-64
2023/03/19 20:07:40;;;;;;;17.05;7.55;;;12.40;99.90;;;;;;10433528;28;20116;-64
2023/03/19 20:12:43;;;;;;;18.75;7.25;;;12.30;99.90;;;;;;10429333;28;20293;-63
2023/03/19 20:17:44;;;;;;;15.88;7.85;;;12.30;99.90;;;;;;10429177;28;20488;-64
2023/03/19 20:22:46;;;;;;;16.95;7.80;;;12.30;99.90;;;;;;10423650;28;20557;-63
2023/03/19 20:27:50;;;;;;;17.15;7.63;;;12.30;99.90;;;;;;10428179;28;20120;-63
2023/03/19 20:32:52;;;;;;;15.35;6.70;;;12.30;99.90;;;;;;10422287;28;20345;-64
2023/03/19 20:37:55;;;;;;;12.30;6.43;;;12.30;99.90;;;;;;10423350;28;20375;-64
2023/03/19 20:42:55;;;;;;;13.23;6.43;;;12.30;99.90;;;;;;10427546;28;20036;-63
2023/03/19 20:47:57;;;;;;;12.07;6.63;;;12.20;99.90;;;;;;10435752;28;20032;-63
2023/03/19 20:53:02;;;;;;;14.38;6.15;;;12.20;99.90;;;;;;10422679;28;20025;-63
2023/03/19 20:58:11;;;;;;;12.57;6.22;;;12.20;99.90;;;;;;10431127;28;20021;-64
2023/03/19 21:03:17;;;;;;;13.35;6.35;;;12.20;99.90;;;;;;10434130;28;20453;-64
2023/03/19 21:08:40;;;;;;;12.38;5.85;;;12.20;99.90;;;;;;10434040;28;20052;-64
2023/03/19 21:13:41;;;;;;;11.48;5.90;;;12.20;99.90;;;;;;10432687;28;20027;-64
2023/03/19 21:18:41;;;;;;;11.60;5.30;;;12.20;99.90;;;;;;10434917;28;20028;-64
2023/03/19 21:23:52;;;;;;;10.57;5.57;;;12.20;99.90;;;;;;10431629;28;20390;-63
2023/03/19 21:28:58;;;;;;;10.70;5.18;;;12.10;99.90;;;;;;10428302;28;20083;-63
2023/03/19 21:33:58;;;;;;;11.52;5.70;;;12.10;99.90;;;;;;10433787;28;20562;-62
2023/03/19 21:39:00;;;;;;;10.60;5.03;;;12.10;99.90;;;;;;10431705;28;20040;-63
2023/03/19 21:44:13;;;;;;;9.65;4.93;;;12.10;99.90;;;;;;10435847;28;20113;-63
2023/03/19 21:49:15;;;;;;;10.70;5.20;;;12.10;99.90;;;;;;10434563;28;20194;-63
2023/03/19 21:54:15;;;;;;;11.07;5.53;;;12.10;99.90;;;;;;10429525;28;20100;-63
2023/03/19 21:59:25;;;;;;;9.40;4.55;;;12.10;99.90;;;;;;10431722;28;20493;-63
2023/03/19 22:04:25;;;;;;;8.75;4.65;;;12.00;99.90;;;;;;10432916;28;20018;-64
2023/03/19 22:09:26;;;;;;;10.82;5.05;;;12.00;99.90;;;;;;10433414;28;20028;-64
2023/03/19 22:14:27;;;;;;;9.77;5.00;;;12.10;99.90;;;;;;10427780;28;20501;-63
2023/03/19 22:19:28;;;;;;;9.52;4.82;;;12.00;99.90;;;;;;10428379;28;20028;-63
2023/03/19 22:24:28;;;;;;;8.07;4.22;;;12.00;99.90;;;;;;10430120;28;20683;-64
2023/03/19 22:29:31;;;;;;;8.63;4.18;;;12.00;99.90;;;;;;10427155;28;20033;-64
2023/03/19 22:34:32;;;;;;;9.13;4.10;;;12.00;99.90;;;;;;10428416;28;20025;-64
2023/03/19 22:39:32;;;;;;;9.93;4.43;;;12.00;99.90;;;;;;10426851;28;20032;-64
2023/03/19 22:44:33;;;;;;;8.82;4.40;;;12.00;99.90;;;;;;10434312;28;20104;-63
2023/03/19 22:49:34;;;;;;;7.43;3.80;;;12.00;99.90;;;;;;10429215;28;20037;-63
2023/03/19 22:54:34;;;;;;;9.35;4.10;;;11.90;99.90;;;;;;10428780;28;20412;-63
2023/03/19 22:59:35;;;;;;;7.55;3.70;;;11.90;99.90;;;;;;10427454;28;20032;-64
2023/03/19 23:04:37;;;;;;;7.38;3.75;;;11.90;99.90;;;;;;10424079;28;20119;-64
2023/03/19 23:09:38;;;;;;;9.10;4.30;;;11.90;99.90;;;;;;10431036;28;20451;-65
2023/03/19 23:14:39;;;;;;;7.88;3.78;;;11.90;99.90;;;;;;10420120;28;20033;-64
2023/03/19 23:19:39;;;;;;;6.45;3.67;;;11.90;99.90;;;;;;10428272;28;20463;-63
2023/03/19 23:24:41;;;;;;;6.50;3.60;;;11.80;99.90;;;;;;10431229;28;20063;-67
2023/03/19 23:29:43;;;;;;;8.68;3.97;;;11.80;99.90;;;;;;10431275;28;20021;-64
2023/03/19 23:34:45;;;;;;;6.85;3.78;;;11.90;99.90;;;;;;10431571;28;20551;-64
2023/03/19 23:39:46;;;;;;;7.93;3.78;;;11.80;99.90;;;;;;10427964;28;20036;-64
2023/03/19 23:44:48;;;;;;;6.30;3.30;;;11.80;99.90;;;;;;10429987;28;20302;-65
2023/03/19 23:49:49;;;;;;;8.93;3.55;;;11.80;99.90;;;;;;10432185;28;20521;-64
2023/03/19 23:54:51;;;;;;;8.20;3.50;;;11.80;99.90;;;;;;10434309;28;20527;-63
2023/03/19 23:59:52;;;;;;;5.97;3.17;;;11.80;99.90;;;;;;10433975;28;20377;-63
